Terminal Aerodrome Forecast
Issued by NWS

Home | Current Version | Previous Version | Text Only | Print | Product List | Glossary On
Versions: 1 2 3 4 5 6 7 8 9 10 11 12 13 14 15 16
000
FTUS43 KDTX 290637 AAA
TAFYIP
TAF AMD
KYIP 290637Z 2907/3006 20005KT P6SM -SHRA OVC080
      TEMPO 2907/2908 5SM -SHRA BR SCT035 OVC070
     FM290800 VRB03KT P6SM OVC040
      TEMPO 2908/2911 6SM -RA OVC025
     FM291100 02007KT P6SM BKN040
     FM291400 04010KT P6SM SCT040 BKN080 OVC200
     FM291900 06013KT 6SM -RA OVC040
     FM300100 06013G20KT 6SM -RA OVC025=

USA.gov is the U.S. government's official web portal to all federal, state and local government web resources and services.